sensor_id;sensor_type;location;lat;lon;timestamp;P1;durP1;ratioP1;P2;durP2;ratioP2
43226;SDS011;28839;52.404;9.808;2022-12-24T00:00:29;14.57;;;9.73;;
43226;SDS011;28839;52.404;9.808;2022-12-24T00:07:24;15.63;;;10.60;;
43226;SDS011;28839;52.404;9.808;2022-12-24T00:14:18;21.45;;;14.50;;
43226;SDS011;28839;52.404;9.808;2022-12-24T00:21:12;14.32;;;9.75;;
43226;SDS011;28839;52.404;9.808;2022-12-24T00:28:07;16.33;;;9.40;;
43226;SDS011;28839;52.404;9.808;2022-12-24T00:35:02;11.25;;;7.80;;
43226;SDS011;28839;52.404;9.808;2022-12-24T00:41:58;14.20;;;8.63;;
43226;SDS011;28839;52.404;9.808;2022-12-24T00:48:54;14.48;;;8.65;;
43226;SDS011;28839;52.404;9.808;2022-12-24T00:55:48;13.65;;;9.50;;
43226;SDS011;28839;52.404;9.808;2022-12-24T01:02:41;19.35;;;10.45;;
43226;SDS011;28839;52.404;9.808;2022-12-24T01:09:37;18.05;;;11.57;;
43226;SDS011;28839;52.404;9.808;2022-12-24T01:16:30;19.67;;;10.70;;
43226;SDS011;28839;52.404;9.808;2022-12-24T01:23:25;22.33;;;12.37;;
43226;SDS011;28839;52.404;9.808;2022-12-24T01:30:20;21.17;;;12.13;;
43226;SDS011;28839;52.404;9.808;2022-12-24T01:37:14;16.62;;;11.15;;
43226;SDS011;28839;52.404;9.808;2022-12-24T01:44:18;19.58;;;12.63;;
43226;SDS011;28839;52.404;9.808;2022-12-24T01:51:16;18.25;;;11.32;;
43226;SDS011;28839;52.404;9.808;2022-12-24T01:58:18;20.95;;;12.35;;
43226;SDS011;28839;52.404;9.808;2022-12-24T02:05:15;33.08;;;17.40;;
43226;SDS011;28839;52.404;9.808;2022-12-24T02:12:13;25.70;;;16.12;;
43226;SDS011;28839;52.404;9.808;2022-12-24T02:19:12;45.10;;;29.12;;
43226;SDS011;28839;52.404;9.808;2022-12-24T02:26:24;28.17;;;17.30;;
43226;SDS011;28839;52.404;9.808;2022-12-24T02:33:30;21.15;;;12.32;;
43226;SDS011;28839;52.404;9.808;2022-12-24T02:40:28;25.00;;;13.62;;
43226;SDS011;28839;52.404;9.808;2022-12-24T02:47:26;23.50;;;13.85;;
43226;SDS011;28839;52.404;9.808;2022-12-24T02:54:23;32.47;;;14.15;;
43226;SDS011;28839;52.404;9.808;2022-12-24T03:01:18;26.20;;;13.77;;
43226;SDS011;28839;52.404;9.808;2022-12-24T03:08:20;30.52;;;12.50;;
43226;SDS011;28839;52.404;9.808;2022-12-24T03:15:26;23.98;;;7.18;;
43226;SDS011;28839;52.404;9.808;2022-12-24T03:22:21;26.87;;;5.82;;
43226;SDS011;28839;52.404;9.808;2022-12-24T03:29:17;19.65;;;4.90;;
43226;SDS011;28839;52.404;9.808;2022-12-24T03:36:13;20.47;;;6.17;;
43226;SDS011;28839;52.404;9.808;2022-12-24T03:43:06;22.67;;;4.68;;
43226;SDS011;28839;52.404;9.808;2022-12-24T03:50:00;26.15;;;6.05;;
43226;SDS011;28839;52.404;9.808;2022-12-24T03:56:55;21.20;;;5.75;;
43226;SDS011;28839;52.404;9.808;2022-12-24T04:03:49;25.50;;;4.65;;
43226;SDS011;28839;52.404;9.808;2022-12-24T04:10:43;26.62;;;5.47;;
43226;SDS011;28839;52.404;9.808;2022-12-24T04:17:38;18.00;;;4.43;;
43226;SDS011;28839;52.404;9.808;2022-12-24T04:24:32;26.12;;;6.75;;
43226;SDS011;28839;52.404;9.808;2022-12-24T04:31:26;25.02;;;4.90;;
43226;SDS011;28839;52.404;9.808;2022-12-24T04:38:21;23.25;;;5.37;;
43226;SDS011;28839;52.404;9.808;2022-12-24T04:45:15;13.65;;;2.92;;
43226;SDS011;28839;52.404;9.808;2022-12-24T04:52:09;22.10;;;3.92;;
43226;SDS011;28839;52.404;9.808;2022-12-24T04:59:04;20.02;;;4.07;;
43226;SDS011;28839;52.404;9.808;2022-12-24T05:06:01;21.00;;;3.50;;
43226;SDS011;28839;52.404;9.808;2022-12-24T05:12:55;24.17;;;4.57;;
43226;SDS011;28839;52.404;9.808;2022-12-24T05:19:50;19.95;;;4.37;;
43226;SDS011;28839;52.404;9.808;2022-12-24T05:26:44;16.23;;;4.15;;
43226;SDS011;28839;52.404;9.808;2022-12-24T05:33:41;18.50;;;4.05;;
43226;SDS011;28839;52.404;9.808;2022-12-24T05:40:36;21.48;;;3.47;;
43226;SDS011;28839;52.404;9.808;2022-12-24T05:47:30;23.30;;;5.60;;
43226;SDS011;28839;52.404;9.808;2022-12-24T05:54:24;21.17;;;4.75;;
43226;SDS011;28839;52.404;9.808;2022-12-24T06:01:20;32.20;;;4.37;;
43226;SDS011;28839;52.404;9.808;2022-12-24T06:08:14;27.08;;;5.30;;
43226;SDS011;28839;52.404;9.808;2022-12-24T06:15:08;37.67;;;5.75;;
43226;SDS011;28839;52.404;9.808;2022-12-24T06:22:04;22.23;;;5.30;;
43226;SDS011;28839;52.404;9.808;2022-12-24T06:28:57;30.15;;;5.60;;
43226;SDS011;28839;52.404;9.808;2022-12-24T06:35:51;31.87;;;5.25;;
43226;SDS011;28839;52.404;9.808;2022-12-24T06:42:47;23.83;;;5.53;;
43226;SDS011;28839;52.404;9.808;2022-12-24T06:49:41;34.40;;;5.65;;
43226;SDS011;28839;52.404;9.808;2022-12-24T06:56:35;22.77;;;4.57;;
43226;SDS011;28839;52.404;9.808;2022-12-24T07:03:30;28.98;;;5.25;;
43226;SDS011;28839;52.404;9.808;2022-12-24T07:10:24;22.85;;;6.25;;
43226;SDS011;28839;52.404;9.808;2022-12-24T07:17:18;28.62;;;4.90;;
43226;SDS011;28839;52.404;9.808;2022-12-24T07:24:13;23.15;;;4.80;;
43226;SDS011;28839;52.404;9.808;2022-12-24T07:31:07;20.45;;;3.92;;
43226;SDS011;28839;52.404;9.808;2022-12-24T07:38:01;30.37;;;6.50;;
43226;SDS011;28839;52.404;9.808;2022-12-24T07:44:56;22.30;;;3.77;;
43226;SDS011;28839;52.404;9.808;2022-12-24T07:51:50;21.05;;;4.50;;
43226;SDS011;28839;52.404;9.808;2022-12-24T07:58:44;24.87;;;4.80;;
43226;SDS011;28839;52.404;9.808;2022-12-24T08:05:39;27.87;;;5.53;;
43226;SDS011;28839;52.404;9.808;2022-12-24T08:12:33;26.55;;;5.00;;
43226;SDS011;28839;52.404;9.808;2022-12-24T08:19:27;24.35;;;4.03;;
43226;SDS011;28839;52.404;9.808;2022-12-24T08:26:22;26.73;;;5.20;;
43226;SDS011;28839;52.404;9.808;2022-12-24T08:33:16;25.15;;;4.45;;
43226;SDS011;28839;52.404;9.808;2022-12-24T08:40:11;24.25;;;4.90;;
43226;SDS011;28839;52.404;9.808;2022-12-24T08:47:07;22.42;;;3.92;;
43226;SDS011;28839;52.404;9.808;2022-12-24T08:54:00;24.10;;;4.35;;
43226;SDS011;28839;52.404;9.808;2022-12-24T09:00:54;16.65;;;3.72;;
43226;SDS011;28839;52.404;9.808;2022-12-24T09:07:50;28.92;;;5.28;;
43226;SDS011;28839;52.404;9.808;2022-12-24T09:14:44;24.70;;;5.57;;
43226;SDS011;28839;52.404;9.808;2022-12-24T09:21:38;24.57;;;5.50;;
43226;SDS011;28839;52.404;9.808;2022-12-24T09:28:33;21.43;;;5.60;;
43226;SDS011;28839;52.404;9.808;2022-12-24T09:35:27;25.58;;;7.57;;
43226;SDS011;28839;52.404;9.808;2022-12-24T09:42:24;37.65;;;8.32;;
43226;SDS011;28839;52.404;9.808;2022-12-24T09:49:30;32.60;;;7.60;;
43226;SDS011;28839;52.404;9.808;2022-12-24T09:56:30;27.83;;;8.03;;
43226;SDS011;28839;52.404;9.808;2022-12-24T10:03:29;31.67;;;8.77;;
43226;SDS011;28839;52.404;9.808;2022-12-24T10:10:27;30.87;;;7.93;;
43226;SDS011;28839;52.404;9.808;2022-12-24T10:17:33;22.90;;;6.90;;
43226;SDS011;28839;52.404;9.808;2022-12-24T10:24:37;37.92;;;8.68;;
43226;SDS011;28839;52.404;9.808;2022-12-24T10:31:38;29.60;;;8.20;;
43226;SDS011;28839;52.404;9.808;2022-12-24T10:38:37;26.20;;;7.75;;
43226;SDS011;28839;52.404;9.808;2022-12-24T10:45:34;27.42;;;7.55;;
43226;SDS011;28839;52.404;9.808;2022-12-24T10:52:34;26.92;;;7.93;;
43226;SDS011;28839;52.404;9.808;2022-12-24T10:59:33;19.48;;;6.28;;
43226;SDS011;28839;52.404;9.808;2022-12-24T11:06:34;29.90;;;8.40;;
43226;SDS011;28839;52.404;9.808;2022-12-24T11:13:51;23.30;;;6.43;;
43226;SDS011;28839;52.404;9.808;2022-12-24T11:20:48;21.52;;;6.68;;
43226;SDS011;28839;52.404;9.808;2022-12-24T11:27:45;22.50;;;5.75;;
43226;SDS011;28839;52.404;9.808;2022-12-24T11:34:43;25.58;;;7.12;;
43226;SDS011;28839;52.404;9.808;2022-12-24T11:41:37;19.02;;;5.90;;
43226;SDS011;28839;52.404;9.808;2022-12-24T11:48:33;20.90;;;6.53;;
43226;SDS011;28839;52.404;9.808;2022-12-24T12:02:27;19.60;;;5.45;;
43226;SDS011;28839;52.404;9.808;2022-12-24T12:09:27;17.37;;;4.97;;
43226;SDS011;28839;52.404;9.808;2022-12-24T12:16:25;15.00;;;4.28;;
43226;SDS011;28839;52.404;9.808;2022-12-24T12:23:46;15.27;;;4.80;;
43226;SDS011;28839;52.404;9.808;2022-12-24T12:30:42;10.30;;;4.03;;
43226;SDS011;28839;52.404;9.808;2022-12-24T12:37:40;16.25;;;3.75;;
43226;SDS011;28839;52.404;9.808;2022-12-24T12:51:56;14.02;;;4.62;;
43226;SDS011;28839;52.404;9.808;2022-12-24T12:58:59;10.10;;;4.65;;
43226;SDS011;28839;52.404;9.808;2022-12-24T13:06:02;22.77;;;6.93;;
43226;SDS011;28839;52.404;9.808;2022-12-24T13:13:19;26.92;;;7.22;;
43226;SDS011;28839;52.404;9.808;2022-12-24T13:20:37;18.20;;;7.28;;
43226;SDS011;28839;52.404;9.808;2022-12-24T13:27:34;23.50;;;6.87;;
43226;SDS011;28839;52.404;9.808;2022-12-24T13:34:32;26.57;;;8.47;;
43226;SDS011;28839;52.404;9.808;2022-12-24T13:41:37;29.87;;;12.00;;
43226;SDS011;28839;52.404;9.808;2022-12-24T13:48:43;5.43;;;2.12;;
43226;SDS011;28839;52.404;9.808;2022-12-24T13:55:38;6.70;;;2.20;;
43226;SDS011;28839;52.404;9.808;2022-12-24T14:02:45;4.37;;;2.03;;
43226;SDS011;28839;52.404;9.808;2022-12-24T14:09:45;3.83;;;1.62;;
43226;SDS011;28839;52.404;9.808;2022-12-24T14:16:44;6.50;;;2.78;;
43226;SDS011;28839;52.404;9.808;2022-12-24T14:23:44;4.50;;;2.42;;
43226;SDS011;28839;52.404;9.808;2022-12-24T14:30:44;18.65;;;8.90;;
43226;SDS011;28839;52.404;9.808;2022-12-24T14:37:55;27.48;;;12.37;;
43226;SDS011;28839;52.404;9.808;2022-12-24T14:44:55;19.30;;;6.53;;
43226;SDS011;28839;52.404;9.808;2022-12-24T14:51:59;12.40;;;4.10;;
43226;SDS011;28839;52.404;9.808;2022-12-24T14:59:12;13.53;;;4.47;;
43226;SDS011;28839;52.404;9.808;2022-12-24T15:06:11;8.60;;;3.75;;
43226;SDS011;28839;52.404;9.808;2022-12-24T15:13:07;13.25;;;6.65;;
43226;SDS011;28839;52.404;9.808;2022-12-24T15:20:09;20.17;;;9.77;;
43226;SDS011;28839;52.404;9.808;2022-12-24T15:27:13;15.43;;;7.12;;
43226;SDS011;28839;52.404;9.808;2022-12-24T15:34:23;19.02;;;7.82;;
43226;SDS011;28839;52.404;9.808;2022-12-24T15:41:18;21.80;;;9.20;;
43226;SDS011;28839;52.404;9.808;2022-12-24T15:48:17;29.17;;;12.82;;
43226;SDS011;28839;52.404;9.808;2022-12-24T16:02:31;29.27;;;11.60;;
43226;SDS011;28839;52.404;9.808;2022-12-24T16:16:43;34.75;;;11.00;;
43226;SDS011;28839;52.404;9.808;2022-12-24T16:23:44;37.30;;;9.88;;
43226;SDS011;28839;52.404;9.808;2022-12-24T16:30:41;30.42;;;12.23;;
43226;SDS011;28839;52.404;9.808;2022-12-24T16:37:36;40.83;;;10.45;;
43226;SDS011;28839;52.404;9.808;2022-12-24T16:44:30;34.88;;;12.52;;
43226;SDS011;28839;52.404;9.808;2022-12-24T16:51:25;35.88;;;12.10;;
43226;SDS011;28839;52.404;9.808;2022-12-24T16:58:19;31.33;;;9.95;;
43226;SDS011;28839;52.404;9.808;2022-12-24T17:05:14;34.80;;;11.07;;
43226;SDS011;28839;52.404;9.808;2022-12-24T17:12:09;44.47;;;13.33;;
43226;SDS011;28839;52.404;9.808;2022-12-24T17:19:04;35.67;;;14.40;;
43226;SDS011;28839;52.404;9.808;2022-12-24T17:26:01;32.00;;;11.12;;
43226;SDS011;28839;52.404;9.808;2022-12-24T17:32:56;26.95;;;10.50;;
43226;SDS011;28839;52.404;9.808;2022-12-24T17:39:50;33.75;;;13.62;;
43226;SDS011;28839;52.404;9.808;2022-12-24T17:46:44;37.30;;;12.02;;
43226;SDS011;28839;52.404;9.808;2022-12-24T17:53:40;39.03;;;13.27;;
43226;SDS011;28839;52.404;9.808;2022-12-24T18:00:34;44.70;;;14.18;;
43226;SDS011;28839;52.404;9.808;2022-12-24T18:07:28;39.90;;;12.27;;
43226;SDS011;28839;52.404;9.808;2022-12-24T18:14:23;44.65;;;17.08;;
43226;SDS011;28839;52.404;9.808;2022-12-24T18:21:18;34.75;;;11.00;;
43226;SDS011;28839;52.404;9.808;2022-12-24T18:28:15;27.05;;;10.35;;
43226;SDS011;28839;52.404;9.808;2022-12-24T18:35:10;42.65;;;13.95;;
43226;SDS011;28839;52.404;9.808;2022-12-24T18:42:07;33.17;;;9.23;;
43226;SDS011;28839;52.404;9.808;2022-12-24T18:49:05;32.78;;;14.68;;
43226;SDS011;28839;52.404;9.808;2022-12-24T18:56:04;36.72;;;13.68;;
43226;SDS011;28839;52.404;9.808;2022-12-24T19:02:59;40.10;;;16.12;;
43226;SDS011;28839;52.404;9.808;2022-12-24T19:09:55;62.08;;;30.50;;
43226;SDS011;28839;52.404;9.808;2022-12-24T19:16:50;50.92;;;23.45;;
43226;SDS011;28839;52.404;9.808;2022-12-24T19:23:44;38.35;;;15.20;;
43226;SDS011;28839;52.404;9.808;2022-12-24T19:30:39;40.47;;;20.43;;
43226;SDS011;28839;52.404;9.808;2022-12-24T19:37:35;45.97;;;18.87;;
43226;SDS011;28839;52.404;9.808;2022-12-24T19:44:29;45.20;;;16.62;;
43226;SDS011;28839;52.404;9.808;2022-12-24T19:51:23;44.08;;;15.68;;
43226;SDS011;28839;52.404;9.808;2022-12-24T19:58:19;35.33;;;13.68;;
43226;SDS011;28839;52.404;9.808;2022-12-24T20:05:13;42.33;;;16.60;;
43226;SDS011;28839;52.404;9.808;2022-12-24T20:12:07;44.03;;;19.10;;
43226;SDS011;28839;52.404;9.808;2022-12-24T20:19:03;51.23;;;16.97;;
43226;SDS011;28839;52.404;9.808;2022-12-24T20:26:04;38.53;;;18.67;;
43226;SDS011;28839;52.404;9.808;2022-12-24T20:32:59;53.67;;;18.40;;
43226;SDS011;28839;52.404;9.808;2022-12-24T20:39:54;46.33;;;18.77;;
43226;SDS011;28839;52.404;9.808;2022-12-24T20:46:48;40.08;;;16.83;;
43226;SDS011;28839;52.404;9.808;2022-12-24T20:53:42;46.17;;;17.48;;
43226;SDS011;28839;52.404;9.808;2022-12-24T21:00:39;42.95;;;18.73;;
43226;SDS011;28839;52.404;9.808;2022-12-24T21:07:33;49.10;;;18.08;;
43226;SDS011;28839;52.404;9.808;2022-12-24T21:14:27;54.25;;;17.65;;
43226;SDS011;28839;52.404;9.808;2022-12-24T21:21:22;46.15;;;18.37;;
43226;SDS011;28839;52.404;9.808;2022-12-24T21:28:16;44.05;;;16.17;;
43226;SDS011;28839;52.404;9.808;2022-12-24T21:35:10;40.97;;;16.02;;
43226;SDS011;28839;52.404;9.808;2022-12-24T21:42:06;59.78;;;26.05;;
43226;SDS011;28839;52.404;9.808;2022-12-24T21:49:01;54.78;;;23.75;;
43226;SDS011;28839;52.404;9.808;2022-12-24T21:56:12;38.90;;;19.10;;
43226;SDS011;28839;52.404;9.808;2022-12-24T22:03:07;48.25;;;15.35;;
43226;SDS011;28839;52.404;9.808;2022-12-24T22:10:01;64.78;;;18.55;;
43226;SDS011;28839;52.404;9.808;2022-12-24T22:17:13;31.85;;;13.82;;
43226;SDS011;28839;52.404;9.808;2022-12-24T22:24:09;36.05;;;15.27;;
43226;SDS011;28839;52.404;9.808;2022-12-24T22:31:03;37.67;;;14.32;;
43226;SDS011;28839;52.404;9.808;2022-12-24T22:37:57;28.45;;;14.45;;
43226;SDS011;28839;52.404;9.808;2022-12-24T22:44:52;40.12;;;16.02;;
43226;SDS011;28839;52.404;9.808;2022-12-24T22:51:46;41.63;;;15.80;;
43226;SDS011;28839;52.404;9.808;2022-12-24T22:58:40;50.90;;;22.05;;
43226;SDS011;28839;52.404;9.808;2022-12-24T23:05:35;36.17;;;17.50;;
43226;SDS011;28839;52.404;9.808;2022-12-24T23:12:29;28.38;;;16.95;;
43226;SDS011;28839;52.404;9.808;2022-12-24T23:19:41;56.10;;;18.52;;
43226;SDS011;28839;52.404;9.808;2022-12-24T23:26:36;50.80;;;17.87;;
43226;SDS011;28839;52.404;9.808;2022-12-24T23:33:31;53.08;;;18.42;;
43226;SDS011;28839;52.404;9.808;2022-12-24T23:40:25;128.15;;;53.40;;
43226;SDS011;28839;52.404;9.808;2022-12-24T23:47:21;117.25;;;46.42;;
43226;SDS011;28839;52.404;9.808;2022-12-24T23:54:15;74.60;;;26.55;;
